sensor_id;sensor_type;location;lat;lon;timestamp;pressure;altitude;pressure_sealevel;temperature;humidity
43450;BME280;29041;42.266;23.110;2023-07-22T00:00:11;95657.66;;;23.08;62.84
43450;BME280;29041;42.266;23.110;2023-07-22T00:03:00;95664.63;;;23.12;63.42
43450;BME280;29041;42.266;23.110;2023-07-22T00:05:49;95671.25;;;22.73;65.00
43450;BME280;29041;42.266;23.110;2023-07-22T00:08:49;95671.47;;;22.48;65.64
43450;BME280;29041;42.266;23.110;2023-07-22T00:11:37;95678.91;;;22.37;64.87
43450;BME280;29041;42.266;23.110;2023-07-22T00:14:24;95692.53;;;22.51;62.96
43450;BME280;29041;42.266;23.110;2023-07-22T00:17:12;95692.47;;;22.58;61.42
43450;BME280;29041;42.266;23.110;2023-07-22T00:19:59;95692.47;;;22.58;61.07
43450;BME280;29041;42.266;23.110;2023-07-22T00:22:48;95689.66;;;22.69;60.22
43450;BME280;29041;42.266;23.110;2023-07-22T00:25:36;95693.94;;;22.74;60.34
43450;BME280;29041;42.266;23.110;2023-07-22T00:28:23;95692.88;;;23.06;60.01
43450;BME280;29041;42.266;23.110;2023-07-22T00:31:10;95686.38;;;22.89;60.28
43450;BME280;29041;42.266;23.110;2023-07-22T00:33:58;95695.16;;;22.65;61.53
43450;BME280;29041;42.266;23.110;2023-07-22T00:36:45;95703.53;;;22.44;62.52
43450;BME280;29041;42.266;23.110;2023-07-22T00:39:36;95698.06;;;22.44;63.15
43450;BME280;29041;42.266;23.110;2023-07-22T00:42:23;95706.69;;;22.35;63.71
43450;BME280;29041;42.266;23.110;2023-07-22T00:45:10;95705.19;;;22.23;64.38
43450;BME280;29041;42.266;23.110;2023-07-22T00:47:58;95691.03;;;22.35;63.76
43450;BME280;29041;42.266;23.110;2023-07-22T00:50:45;95696.31;;;22.68;62.69
43450;BME280;29041;42.266;23.110;2023-07-22T00:53:32;95691.03;;;22.35;64.70
43450;BME280;29041;42.266;23.110;2023-07-22T00:56:21;95685.94;;;22.45;64.00
43450;BME280;29041;42.266;23.110;2023-07-22T00:59:08;95688.31;;;22.88;61.24
43450;BME280;29041;42.266;23.110;2023-07-22T01:01:55;95682.38;;;23.39;59.59
43450;BME280;29041;42.266;23.110;2023-07-22T01:04:42;95696.38;;;23.06;61.16
43450;BME280;29041;42.266;23.110;2023-07-22T01:07:30;95695.66;;;22.53;62.77
43450;BME280;29041;42.266;23.110;2023-07-22T01:10:17;95684.75;;;22.46;63.08
43450;BME280;29041;42.266;23.110;2023-07-22T01:13:06;95698.59;;;22.17;64.56
43450;BME280;29041;42.266;23.110;2023-07-22T01:15:54;95700.78;;;22.44;64.45
43450;BME280;29041;42.266;23.110;2023-07-22T01:18:42;95703.00;;;21.93;66.95
43450;BME280;29041;42.266;23.110;2023-07-22T01:21:29;95694.56;;;22.40;65.31
43450;BME280;29041;42.266;23.110;2023-07-22T01:24:18;95696.75;;;21.89;67.74
43450;BME280;29041;42.266;23.110;2023-07-22T01:27:06;95689.34;;;21.93;68.64
43450;BME280;29041;42.266;23.110;2023-07-22T01:29:55;95697.16;;;21.91;68.16
43450;BME280;29041;42.266;23.110;2023-07-22T01:32:42;95703.09;;;21.67;69.81
43450;BME280;29041;42.266;23.110;2023-07-22T01:35:30;95700.78;;;21.59;70.07
43450;BME280;29041;42.266;23.110;2023-07-22T01:38:17;95706.59;;;21.75;69.14
43450;BME280;29041;42.266;23.110;2023-07-22T01:41:06;95706.22;;;21.66;69.15
43450;BME280;29041;42.266;23.110;2023-07-22T01:43:53;95708.19;;;21.65;68.99
43450;BME280;29041;42.266;23.110;2023-07-22T01:46:41;95699.63;;;21.60;69.31
43450;BME280;29041;42.266;23.110;2023-07-22T01:49:28;95696.13;;;21.59;69.44
43450;BME280;29041;42.266;23.110;2023-07-22T01:52:15;95696.13;;;21.52;69.76
43450;BME280;29041;42.266;23.110;2023-07-22T01:55:03;95691.72;;;21.87;67.94
43450;BME280;29041;42.266;23.110;2023-07-22T01:57:54;95690.66;;;21.52;70.07
43450;BME280;29041;42.266;23.110;2023-07-22T02:00:41;95697.66;;;21.46;70.35
43450;BME280;29041;42.266;23.110;2023-07-22T02:03:28;95699.66;;;21.34;70.81
43450;BME280;29041;42.266;23.110;2023-07-22T02:06:15;95687.59;;;21.21;71.60
43450;BME280;29041;42.266;23.110;2023-07-22T02:09:03;95698.50;;;21.32;71.71
43450;BME280;29041;42.266;23.110;2023-07-22T02:11:54;95688.22;;;21.76;69.56
43450;BME280;29041;42.266;23.110;2023-07-22T02:14:42;95690.69;;;21.30;71.88
43450;BME280;29041;42.266;23.110;2023-07-22T02:17:29;95695.72;;;21.53;71.04
43450;BME280;29041;42.266;23.110;2023-07-22T02:20:17;95696.44;;;21.68;69.15
43450;BME280;29041;42.266;23.110;2023-07-22T02:23:04;95697.63;;;21.64;69.75
43450;BME280;29041;42.266;23.110;2023-07-22T02:25:51;95700.03;;;21.40;70.81
43450;BME280;29041;42.266;23.110;2023-07-22T02:28:38;95703.22;;;21.10;72.68
43450;BME280;29041;42.266;23.110;2023-07-22T02:31:27;95708.66;;;21.06;73.45
43450;BME280;29041;42.266;23.110;2023-07-22T02:34:14;95711.41;;;20.88;74.30
43450;BME280;29041;42.266;23.110;2023-07-22T02:37:02;95702.03;;;20.49;76.44
43450;BME280;29041;42.266;23.110;2023-07-22T02:39:49;95702.06;;;20.74;75.87
43450;BME280;29041;42.266;23.110;2023-07-22T02:42:37;95708.25;;;20.64;76.79
43450;BME280;29041;42.266;23.110;2023-07-22T02:45:24;95695.78;;;20.49;77.50
43450;BME280;29041;42.266;23.110;2023-07-22T02:48:12;95718.81;;;20.69;76.78
43450;BME280;29041;42.266;23.110;2023-07-22T02:51:04;95708.28;;;20.79;76.48
43450;BME280;29041;42.266;23.110;2023-07-22T02:53:52;95715.72;;;20.82;77.17
43450;BME280;29041;42.266;23.110;2023-07-22T02:56:39;95715.66;;;20.53;78.60
43450;BME280;29041;42.266;23.110;2023-07-22T02:59:26;95714.09;;;20.63;78.29
43450;BME280;29041;42.266;23.110;2023-07-22T03:02:14;95713.38;;;20.76;77.56
43450;BME280;29041;42.266;23.110;2023-07-22T03:05:03;95715.69;;;20.67;77.76
43450;BME280;29041;42.266;23.110;2023-07-22T03:07:53;95721.53;;;20.69;77.81
43450;BME280;29041;42.266;23.110;2023-07-22T03:10:41;95708.66;;;20.66;78.03
43450;BME280;29041;42.266;23.110;2023-07-22T03:13:32;95709.06;;;20.61;78.16
43450;BME280;29041;42.266;23.110;2023-07-22T03:16:20;95713.34;;;20.55;79.18
43450;BME280;29041;42.266;23.110;2023-07-22T03:19:07;95713.69;;;20.46;79.81
43450;BME280;29041;42.266;23.110;2023-07-22T03:21:57;95719.91;;;20.32;80.50
43450;BME280;29041;42.266;23.110;2023-07-22T03:24:45;95721.09;;;20.35;80.53
43450;BME280;29041;42.266;23.110;2023-07-22T03:27:32;95710.56;;;20.40;80.44
43450;BME280;29041;42.266;23.110;2023-07-22T03:30:21;95717.59;;;20.59;79.47
43450;BME280;29041;42.266;23.110;2023-07-22T03:33:09;95720.72;;;20.65;78.17
43450;BME280;29041;42.266;23.110;2023-07-22T03:35:56;95720.72;;;20.54;79.10
43450;BME280;29041;42.266;23.110;2023-07-22T03:38:45;95731.97;;;20.24;81.08
43450;BME280;29041;42.266;23.110;2023-07-22T03:41:32;95734.69;;;20.24;81.72
43450;BME280;29041;42.266;23.110;2023-07-22T03:44:19;95721.44;;;20.26;81.51
43450;BME280;29041;42.266;23.110;2023-07-22T03:47:06;95720.25;;;20.12;82.49
43450;BME280;29041;42.266;23.110;2023-07-22T03:49:53;95719.53;;;20.30;81.36
43450;BME280;29041;42.266;23.110;2023-07-22T03:52:41;95736.22;;;20.10;82.36
43450;BME280;29041;42.266;23.110;2023-07-22T03:55:29;95735.09;;;20.29;81.34
43450;BME280;29041;42.266;23.110;2023-07-22T03:58:16;95741.34;;;20.44;81.90
43450;BME280;29041;42.266;23.110;2023-07-22T04:01:03;95741.00;;;20.64;79.88
43450;BME280;29041;42.266;23.110;2023-07-22T04:03:50;95746.06;;;20.55;80.61
43450;BME280;29041;42.266;23.110;2023-07-22T04:06:38;95739.41;;;20.56;81.08
43450;BME280;29041;42.266;23.110;2023-07-22T04:09:27;95746.84;;;20.59;81.08
43450;BME280;29041;42.266;23.110;2023-07-22T04:12:15;95747.22;;;20.43;82.41
43450;BME280;29041;42.266;23.110;2023-07-22T04:15:03;95743.38;;;21.16;78.85
43450;BME280;29041;42.266;23.110;2023-07-22T04:17:50;95748.44;;;21.14;78.31
43450;BME280;29041;42.266;23.110;2023-07-22T04:20:37;95752.34;;;20.84;79.93
43450;BME280;29041;42.266;23.110;2023-07-22T04:23:25;95753.13;;;20.96;80.13
43450;BME280;29041;42.266;23.110;2023-07-22T04:26:12;95758.56;;;20.77;80.61
43450;BME280;29041;42.266;23.110;2023-07-22T04:29:01;95746.88;;;20.95;80.11
43450;BME280;29041;42.266;23.110;2023-07-22T04:31:48;95752.34;;;21.10;79.62
43450;BME280;29041;42.266;23.110;2023-07-22T04:34:35;95755.44;;;21.19;79.80
43450;BME280;29041;42.266;23.110;2023-07-22T04:37:23;95749.97;;;21.37;78.06
43450;BME280;29041;42.266;23.110;2023-07-22T04:40:10;95757.00;;;21.34;78.46
43450;BME280;29041;42.266;23.110;2023-07-22T04:43:00;95756.19;;;21.41;78.56
43450;BME280;29041;42.266;23.110;2023-07-22T04:45:49;95754.63;;;21.51;78.20
43450;BME280;29041;42.266;23.110;2023-07-22T04:48:36;95755.00;;;21.64;78.14
43450;BME280;29041;42.266;23.110;2023-07-22T04:51:23;95753.81;;;21.68;78.11
43450;BME280;29041;42.266;23.110;2023-07-22T04:54:10;95753.78;;;21.83;77.17
43450;BME280;29041;42.266;23.110;2023-07-22T04:56:57;95752.94;;;22.00;77.45
43450;BME280;29041;42.266;23.110;2023-07-22T04:59:45;95745.94;;;21.92;77.71
43450;BME280;29041;42.266;23.110;2023-07-22T05:02:34;95748.91;;;22.27;76.48
43450;BME280;29041;42.266;23.110;2023-07-22T05:05:21;95749.25;;;22.43;75.78
43450;BME280;29041;42.266;23.110;2023-07-22T05:08:09;95773.28;;;22.74;74.43
43450;BME280;29041;42.266;23.110;2023-07-22T05:10:56;95769.91;;;22.52;75.73
43450;BME280;29041;42.266;23.110;2023-07-22T05:13:43;95770.50;;;22.77;74.51
43450;BME280;29041;42.266;23.110;2023-07-22T05:16:30;95778.16;;;22.44;75.98
43450;BME280;29041;42.266;23.110;2023-07-22T05:19:18;95771.44;;;23.09;73.20
43450;BME280;29041;42.266;23.110;2023-07-22T05:22:06;95774.94;;;23.62;71.05
43450;BME280;29041;42.266;23.110;2023-07-22T05:24:53;95779.09;;;23.36;72.16
43450;BME280;29041;42.266;23.110;2023-07-22T05:27:41;95773.72;;;23.67;71.85
43450;BME280;29041;42.266;23.110;2023-07-22T05:30:28;95778.13;;;23.91;70.53
43450;BME280;29041;42.266;23.110;2023-07-22T05:33:15;95786.91;;;23.75;70.90
43450;BME280;29041;42.266;23.110;2023-07-22T05:36:04;95780.50;;;23.89;69.99
43450;BME280;29041;42.266;23.110;2023-07-22T05:38:51;95768.63;;;24.03;69.93
43450;BME280;29041;42.266;23.110;2023-07-22T05:41:39;95774.44;;;24.40;69.04
43450;BME280;29041;42.266;23.110;2023-07-22T05:44:26;95771.69;;;24.40;69.09
43450;BME280;29041;42.266;23.110;2023-07-22T05:47:13;95765.69;;;24.49;68.77
43450;BME280;29041;42.266;23.110;2023-07-22T05:50:00;95760.47;;;25.13;66.47
43450;BME280;29041;42.266;23.110;2023-07-22T05:52:48;95763.03;;;25.24;65.85
43450;BME280;29041;42.266;23.110;2023-07-22T05:55:35;95762.91;;;25.75;64.58
43450;BME280;29041;42.266;23.110;2023-07-22T05:58:22;95765.16;;;25.36;65.41
43450;BME280;29041;42.266;23.110;2023-07-22T06:01:10;95776.50;;;25.14;66.84
43450;BME280;29041;42.266;23.110;2023-07-22T06:03:58;95768.22;;;25.18;67.41
43450;BME280;29041;42.266;23.110;2023-07-22T06:06:46;95774.84;;;25.68;65.52
43450;BME280;29041;42.266;23.110;2023-07-22T06:09:34;95771.59;;;25.73;64.17
43450;BME280;29041;42.266;23.110;2023-07-22T06:12:22;95779.34;;;25.78;63.96
43450;BME280;29041;42.266;23.110;2023-07-22T06:15:09;95772.34;;;26.18;61.69
43450;BME280;29041;42.266;23.110;2023-07-22T06:17:56;95782.66;;;26.50;60.70
43450;BME280;29041;42.266;23.110;2023-07-22T06:20:43;95780.53;;;26.74;60.61
43450;BME280;29041;42.266;23.110;2023-07-22T06:23:31;95774.56;;;26.80;61.38
43450;BME280;29041;42.266;23.110;2023-07-22T06:26:19;95774.31;;;27.07;59.87
43450;BME280;29041;42.266;23.110;2023-07-22T06:29:06;95774.28;;;26.74;61.85
43450;BME280;29041;42.266;23.110;2023-07-22T06:31:53;95776.72;;;26.88;61.09
43450;BME280;29041;42.266;23.110;2023-07-22T06:34:40;95789.63;;;27.24;59.89
43450;BME280;29041;42.266;23.110;2023-07-22T06:37:28;95783.88;;;27.19;59.80
43450;BME280;29041;42.266;23.110;2023-07-22T06:40:15;95784.03;;;27.12;59.44
43450;BME280;29041;42.266;23.110;2023-07-22T06:43:03;95786.25;;;27.33;56.52
43450;BME280;29041;42.266;23.110;2023-07-22T06:45:51;95779.50;;;27.84;54.32
43450;BME280;29041;42.266;23.110;2023-07-22T06:48:38;95783.91;;;28.11;53.33
43450;BME280;29041;42.266;23.110;2023-07-22T06:51:25;95780.81;;;28.09;53.06
43450;BME280;29041;42.266;23.110;2023-07-22T06:54:12;95774.59;;;28.47;51.63
43450;BME280;29041;42.266;23.110;2023-07-22T06:56:59;95763.56;;;28.60;51.79
43450;BME280;29041;42.266;23.110;2023-07-22T06:59:48;95775.25;;;29.16;51.00
43450;BME280;29041;42.266;23.110;2023-07-22T07:02:36;95772.94;;;29.14;51.12
43450;BME280;29041;42.266;23.110;2023-07-22T07:05:23;95774.63;;;29.11;51.77
43450;BME280;29041;42.266;23.110;2023-07-22T07:08:10;95778.72;;;28.13;53.87
43450;BME280;29041;42.266;23.110;2023-07-22T07:10:59;95786.19;;;27.99;54.74
43450;BME280;29041;42.266;23.110;2023-07-22T07:13:46;95768.53;;;28.65;54.55
43450;BME280;29041;42.266;23.110;2023-07-22T07:16:35;95765.56;;;29.11;53.00
43450;BME280;29041;42.266;23.110;2023-07-22T07:19:22;95756.84;;;28.87;54.11
43450;BME280;29041;42.266;23.110;2023-07-22T07:22:09;95765.94;;;29.48;52.39
43450;BME280;29041;42.266;23.110;2023-07-22T07:24:56;95763.13;;;29.96;51.19
43450;BME280;29041;42.266;23.110;2023-07-22T07:27:43;95763.09;;;30.41;48.64
43450;BME280;29041;42.266;23.110;2023-07-22T07:30:31;95760.56;;;30.56;49.42
43450;BME280;29041;42.266;23.110;2023-07-22T07:33:19;95768.78;;;30.15;48.78
43450;BME280;29041;42.266;23.110;2023-07-22T07:36:06;95756.47;;;30.38;49.38
43450;BME280;29041;42.266;23.110;2023-07-22T07:38:53;95765.22;;;30.36;49.02
43450;BME280;29041;42.266;23.110;2023-07-22T07:41:41;95753.81;;;31.07;47.54
43450;BME280;29041;42.266;23.110;2023-07-22T07:44:28;95754.09;;;30.90;47.71
43450;BME280;29041;42.266;23.110;2023-07-22T07:47:15;95760.06;;;31.48;46.72
43450;BME280;29041;42.266;23.110;2023-07-22T07:50:05;95760.34;;;31.31;46.30
43450;BME280;29041;42.266;23.110;2023-07-22T07:52:52;95755.81;;;30.97;47.51
43450;BME280;29041;42.266;23.110;2023-07-22T07:55:39;95765.75;;;31.26;47.83
43450;BME280;29041;42.266;23.110;2023-07-22T07:58:27;95769.47;;;31.60;46.08
43450;BME280;29041;42.266;23.110;2023-07-22T08:01:14;95750.25;;;33.31;42.23
43450;BME280;29041;42.266;23.110;2023-07-22T08:04:02;95753.16;;;34.60;39.28
43450;BME280;29041;42.266;23.110;2023-07-22T08:06:50;95758.94;;;38.16;31.72
43450;BME280;29041;42.266;23.110;2023-07-22T08:09:37;95754.72;;;37.17;32.99
43450;BME280;29041;42.266;23.110;2023-07-22T08:12:24;95750.66;;;37.24;32.43
43450;BME280;29041;42.266;23.110;2023-07-22T08:15:11;95748.63;;;36.81;32.80
43450;BME280;29041;42.266;23.110;2023-07-22T08:17:58;95739.09;;;37.54;31.97
43450;BME280;29041;42.266;23.110;2023-07-22T08:20:46;95749.47;;;38.19;31.43
43450;BME280;29041;42.266;23.110;2023-07-22T08:23:35;95736.59;;;39.55;28.99
43450;BME280;29041;42.266;23.110;2023-07-22T08:26:22;95749.78;;;38.33;30.99
43450;BME280;29041;42.266;23.110;2023-07-22T08:29:10;95738.22;;;37.85;32.04
43450;BME280;29041;42.266;23.110;2023-07-22T08:31:57;95737.28;;;37.39;33.19
43450;BME280;29041;42.266;23.110;2023-07-22T08:34:44;95733.69;;;39.01;30.82
43450;BME280;29041;42.266;23.110;2023-07-22T08:37:31;95735.22;;;38.23;31.68
43450;BME280;29041;42.266;23.110;2023-07-22T08:40:20;95736.25;;;38.71;31.33
43450;BME280;29041;42.266;23.110;2023-07-22T08:43:09;95730.41;;;38.86;31.43
43450;BME280;29041;42.266;23.110;2023-07-22T08:46:00;95728.78;;;39.30;30.68
43450;BME280;29041;42.266;23.110;2023-07-22T08:48:47;95721.25;;;39.61;29.06
43450;BME280;29041;42.266;23.110;2023-07-22T08:51:37;95712.66;;;39.90;29.26
43450;BME280;29041;42.266;23.110;2023-07-22T08:54:27;95702.84;;;40.99;27.51
43450;BME280;29041;42.266;23.110;2023-07-22T08:57:16;95701.59;;;39.61;27.60
43450;BME280;29041;42.266;23.110;2023-07-22T09:00:05;95703.63;;;39.55;25.38
43450;BME280;29041;42.266;23.110;2023-07-22T09:02:53;95686.69;;;39.25;25.17
43450;BME280;29041;42.266;23.110;2023-07-22T09:05:42;95693.06;;;39.19;25.57
43450;BME280;29041;42.266;23.110;2023-07-22T09:08:30;95691.41;;;38.82;25.54
43450;BME280;29041;42.266;23.110;2023-07-22T09:11:19;95687.22;;;39.76;24.22
43450;BME280;29041;42.266;23.110;2023-07-22T09:14:08;95697.50;;;38.07;26.53
43450;BME280;29041;42.266;23.110;2023-07-22T09:16:55;95690.66;;;38.42;26.59
43450;BME280;29041;42.266;23.110;2023-07-22T09:19:43;95680.94;;;40.92;24.05
43450;BME280;29041;42.266;23.110;2023-07-22T09:22:31;95661.44;;;40.08;23.98
43450;BME280;29041;42.266;23.110;2023-07-22T09:25:19;95689.09;;;38.81;25.40
43450;BME280;29041;42.266;23.110;2023-07-22T09:28:06;95671.31;;;39.37;25.37
43450;BME280;29041;42.266;23.110;2023-07-22T09:31:01;95668.16;;;38.93;25.71
43450;BME280;29041;42.266;23.110;2023-07-22T09:33:49;95664.31;;;38.96;25.33
43450;BME280;29041;42.266;23.110;2023-07-22T09:36:49;95676.38;;;38.57;26.28
43450;BME280;29041;42.266;23.110;2023-07-22T09:39:36;95662.03;;;38.89;24.60
43450;BME280;29041;42.266;23.110;2023-07-22T09:42:24;95681.19;;;38.68;25.02
43450;BME280;29041;42.266;23.110;2023-07-22T09:45:11;95670.47;;;38.83;25.28
43450;BME280;29041;42.266;23.110;2023-07-22T09:48:00;95660.31;;;38.01;26.13
43450;BME280;29041;42.266;23.110;2023-07-22T09:50:55;95670.50;;;38.78;26.45
43450;BME280;29041;42.266;23.110;2023-07-22T09:53:46;95663.13;;;37.12;27.47
43450;BME280;29041;42.266;23.110;2023-07-22T09:56:43;95662.59;;;36.00;28.76
43450;BME280;29041;42.266;23.110;2023-07-22T09:59:31;95655.28;;;35.82;29.59
43450;BME280;29041;42.266;23.110;2023-07-22T10:02:21;95644.13;;;36.41;29.82
43450;BME280;29041;42.266;23.110;2023-07-22T10:05:13;95639.47;;;36.70;29.71
43450;BME280;29041;42.266;23.110;2023-07-22T10:08:02;95649.47;;;36.12;29.62
43450;BME280;29041;42.266;23.110;2023-07-22T10:10:53;95635.59;;;36.24;28.89
43450;BME280;29041;42.266;23.110;2023-07-22T10:13:40;95638.16;;;35.69;29.97
43450;BME280;29041;42.266;23.110;2023-07-22T10:16:28;95648.13;;;36.34;28.65
43450;BME280;29041;42.266;23.110;2023-07-22T10:19:16;95652.78;;;36.11;28.56
43450;BME280;29041;42.266;23.110;2023-07-22T10:22:05;95644.50;;;36.60;28.51
43450;BME280;29041;42.266;23.110;2023-07-22T10:24:56;95648.88;;;36.66;28.23
43450;BME280;29041;42.266;23.110;2023-07-22T10:27:46;95648.81;;;35.91;29.44
43450;BME280;29041;42.266;23.110;2023-07-22T10:30:33;95650.88;;;35.70;29.94
43450;BME280;29041;42.266;23.110;2023-07-22T10:33:21;95644.63;;;36.07;29.75
43450;BME280;29041;42.266;23.110;2023-07-22T10:36:09;95628.31;;;36.32;30.23
43450;BME280;29041;42.266;23.110;2023-07-22T10:38:59;95634.88;;;36.29;28.98
43450;BME280;29041;42.266;23.110;2023-07-22T10:41:46;95630.59;;;36.33;28.93
43450;BME280;29041;42.266;23.110;2023-07-22T10:44:36;95633.16;;;36.05;28.86
43450;BME280;29041;42.266;23.110;2023-07-22T10:47:34;95647.09;;;35.99;29.05
43450;BME280;29041;42.266;23.110;2023-07-22T10:50:22;95632.09;;;35.70;29.14
43450;BME280;29041;42.266;23.110;2023-07-22T10:53:10;95630.66;;;36.07;28.51
43450;BME280;29041;42.266;23.110;2023-07-22T10:56:20;95640.03;;;36.04;29.32
43450;BME280;29041;42.266;23.110;2023-07-22T10:59:11;95629.06;;;36.70;29.04
43450;BME280;29041;42.266;23.110;2023-07-22T11:01:58;95633.84;;;36.58;27.97
43450;BME280;29041;42.266;23.110;2023-07-22T11:04:45;95632.81;;;36.61;27.72
43450;BME280;29041;42.266;23.110;2023-07-22T11:07:35;95621.41;;;36.65;26.49
43450;BME280;29041;42.266;23.110;2023-07-22T11:10:28;95616.94;;;36.84;26.65
43450;BME280;29041;42.266;23.110;2023-07-22T11:13:17;95615.44;;;36.46;27.24
43450;BME280;29041;42.266;23.110;2023-07-22T11:16:04;95617.47;;;36.45;24.96
43450;BME280;29041;42.266;23.110;2023-07-22T11:18:51;95623.06;;;36.45;24.40
43450;BME280;29041;42.266;23.110;2023-07-22T11:21:39;95598.91;;;36.42;23.89
43450;BME280;29041;42.266;23.110;2023-07-22T11:24:26;95610.75;;;36.69;23.35
43450;BME280;29041;42.266;23.110;2023-07-22T11:27:13;95601.16;;;37.53;23.75
43450;BME280;29041;42.266;23.110;2023-07-22T11:30:04;95596.75;;;37.24;23.34
43450;BME280;29041;42.266;23.110;2023-07-22T11:32:51;95597.19;;;37.05;23.70
43450;BME280;29041;42.266;23.110;2023-07-22T11:35:42;95599.94;;;36.88;23.78
43450;BME280;29041;42.266;23.110;2023-07-22T11:38:29;95596.47;;;37.16;24.47
43450;BME280;29041;42.266;23.110;2023-07-22T11:41:17;95602.56;;;37.20;24.17
43450;BME280;29041;42.266;23.110;2023-07-22T11:44:05;95596.88;;;36.43;25.03
43450;BME280;29041;42.266;23.110;2023-07-22T11:46:57;95585.78;;;36.60;24.84
43450;BME280;29041;42.266;23.110;2023-07-22T11:49:47;95580.72;;;36.64;24.55
43450;BME280;29041;42.266;23.110;2023-07-22T11:52:35;95587.53;;;36.51;24.71
43450;BME280;29041;42.266;23.110;2023-07-22T11:55:22;95569.50;;;37.07;24.60
43450;BME280;29041;42.266;23.110;2023-07-22T11:58:10;95575.84;;;37.08;24.37
43450;BME280;29041;42.266;23.110;2023-07-22T12:01:05;95580.69;;;37.13;23.44
43450;BME280;29041;42.266;23.110;2023-07-22T12:03:56;95575.81;;;37.02;22.21
43450;BME280;29041;42.266;23.110;2023-07-22T12:06:43;95590.97;;;36.84;22.98
43450;BME280;29041;42.266;23.110;2023-07-22T12:09:31;95596.84;;;36.86;22.96
43450;BME280;29041;42.266;23.110;2023-07-22T12:12:19;95578.31;;;36.89;23.00
43450;BME280;29041;42.266;23.110;2023-07-22T12:15:09;95578.81;;;36.87;23.73
43450;BME280;29041;42.266;23.110;2023-07-22T12:18:00;95574.41;;;36.69;23.32
43450;BME280;29041;42.266;23.110;2023-07-22T12:20:49;95575.78;;;36.91;23.50
43450;BME280;29041;42.266;23.110;2023-07-22T12:23:37;95575.31;;;36.98;23.66
43450;BME280;29041;42.266;23.110;2023-07-22T12:26:24;95582.13;;;36.42;23.95
43450;BME280;29041;42.266;23.110;2023-07-22T12:29:12;95578.06;;;36.43;24.93
43450;BME280;29041;42.266;23.110;2023-07-22T12:31:59;95556.72;;;36.95;23.31
43450;BME280;29041;42.266;23.110;2023-07-22T12:34:46;95558.59;;;37.21;23.82
43450;BME280;29041;42.266;23.110;2023-07-22T12:37:35;95557.84;;;36.60;23.98
43450;BME280;29041;42.266;23.110;2023-07-22T12:40:22;95569.03;;;36.60;24.18
43450;BME280;29041;42.266;23.110;2023-07-22T12:43:09;95561.41;;;36.66;23.97
43450;BME280;29041;42.266;23.110;2023-07-22T12:45:56;95558.47;;;36.38;24.84
43450;BME280;29041;42.266;23.110;2023-07-22T12:48:43;95554.84;;;36.26;25.59
43450;BME280;29041;42.266;23.110;2023-07-22T12:51:31;95560.16;;;36.24;25.20
43450;BME280;29041;42.266;23.110;2023-07-22T12:54:19;95548.59;;;36.42;25.80
43450;BME280;29041;42.266;23.110;2023-07-22T12:57:07;95552.84;;;36.87;25.51
43450;BME280;29041;42.266;23.110;2023-07-22T12:59:54;95544.31;;;37.07;25.11
43450;BME280;29041;42.266;23.110;2023-07-22T13:02:41;95543.09;;;37.25;24.87
43450;BME280;29041;42.266;23.110;2023-07-22T13:05:28;95555.75;;;37.09;24.75
43450;BME280;29041;42.266;23.110;2023-07-22T13:08:15;95547.63;;;37.11;24.45
43450;BME280;29041;42.266;23.110;2023-07-22T13:11:04;95542.59;;;36.61;25.32
43450;BME280;29041;42.266;23.110;2023-07-22T13:13:56;95536.63;;;36.91;24.37
43450;BME280;29041;42.266;23.110;2023-07-22T13:16:43;95533.75;;;36.79;24.72
43450;BME280;29041;42.266;23.110;2023-07-22T13:19:30;95540.31;;;36.65;25.09
43450;BME280;29041;42.266;23.110;2023-07-22T13:22:17;95534.00;;;36.70;25.74
43450;BME280;29041;42.266;23.110;2023-07-22T13:25:05;95540.66;;;36.78;25.36
43450;BME280;29041;42.266;23.110;2023-07-22T13:27:56;95533.28;;;36.87;25.25
43450;BME280;29041;42.266;23.110;2023-07-22T13:30:43;95534.97;;;36.61;26.06
43450;BME280;29041;42.266;23.110;2023-07-22T13:33:30;95517.91;;;36.54;26.22
43450;BME280;29041;42.266;23.110;2023-07-22T13:36:17;95533.97;;;36.64;25.81
43450;BME280;29041;42.266;23.110;2023-07-22T13:39:04;95530.41;;;36.58;26.38
43450;BME280;29041;42.266;23.110;2023-07-22T13:41:51;95530.31;;;36.41;25.93
43450;BME280;29041;42.266;23.110;2023-07-22T13:44:39;95528.56;;;36.49;25.79
43450;BME280;29041;42.266;23.110;2023-07-22T13:47:26;95518.19;;;36.56;25.44
43450;BME280;29041;42.266;23.110;2023-07-22T13:50:14;95506.19;;;36.44;26.02
43450;BME280;29041;42.266;23.110;2023-07-22T13:53:01;95502.59;;;36.38;26.68
43450;BME280;29041;42.266;23.110;2023-07-22T13:55:48;95500.69;;;36.66;25.82
43450;BME280;29041;42.266;23.110;2023-07-22T13:58:35;95493.16;;;36.95;25.23
43450;BME280;29041;42.266;23.110;2023-07-22T14:01:23;95479.84;;;36.73;25.62
43450;BME280;29041;42.266;23.110;2023-07-22T14:04:16;95484.00;;;36.89;26.13
43450;BME280;29041;42.266;23.110;2023-07-22T14:07:03;95479.59;;;36.77;25.50
43450;BME280;29041;42.266;23.110;2023-07-22T14:09:50;95477.59;;;36.83;25.48
43450;BME280;29041;42.266;23.110;2023-07-22T14:12:38;95469.50;;;36.91;25.86
43450;BME280;29041;42.266;23.110;2023-07-22T14:15:25;95480.31;;;36.60;24.98
43450;BME280;29041;42.266;23.110;2023-07-22T14:18:14;95477.59;;;36.83;25.63
43450;BME280;29041;42.266;23.110;2023-07-22T14:21:03;95482.66;;;36.73;25.26
43450;BME280;29041;42.266;23.110;2023-07-22T14:23:50;95474.78;;;36.72;24.86
43450;BME280;29041;42.266;23.110;2023-07-22T14:26:37;95477.53;;;36.66;24.92
43450;BME280;29041;42.266;23.110;2023-07-22T14:29:24;95487.50;;;36.78;24.66
43450;BME280;29041;42.266;23.110;2023-07-22T14:32:12;95488.25;;;36.73;24.64
43450;BME280;29041;42.266;23.110;2023-07-22T14:35:04;95487.16;;;36.54;25.45
43450;BME280;29041;42.266;23.110;2023-07-22T14:37:51;95487.19;;;36.65;25.21